• Join FlightAware (Why Join?)
  • Login
  • US Flag 
09:03PM EDT


 

Airport Tracker/Info


-or-


 

Live Flight TrackerFlight Track Log ✈ UAL4596 ✈ 10-Apr-2013 ✈ KEWR - KSTL

Flight Track Log - Related Links

Times and Time Zones

All times are in EDT time to prevent confusion due to time zone crossing. See the UAL4596 flight status page for this flight to view local times or setup timezone preferences in your user account.

Time Position Orientation Groundspeed Altitude Reporting Facility
EDT Latitude Longitude Course Direction KTS MPH feet Rate Location/Type
03:14PM 40.6519 -74.1819 258° West 183 211 1,500  Level New York Center
03:15PM 40.6439 -74.2472 261° West 261 300 3,200 2,160 Climbing New York Center
03:16PM 40.6833 -74.3150 308° West 261 300 6,000 2,580 Climbing New York Center
03:17PM 40.6834 -74.7521 270° West  Level FlightAware Approximate
03:17PM 40.6825 -74.4106 269° West 244 281 8,400  Level New York Center
03:18PM 40.6834 -74.8985 270° West  Level FlightAware Approximate
03:18PM 40.6842 -74.4928 272° West 244 281 10,600  Level New York Center
03:19PM 40.6706 -75.0430 258° West  Level FlightAware Approximate
03:19PM 40.6892 -74.5944 274° West 275 316 12,000  Level New York Center
03:20PM 40.6858 -74.6981 268° West 286 329 14,100 1,560 Climbing New York Center
03:21PM 40.6847 -74.7967 269° West 297 342 15,100 900 Climbing New York Center
03:22PM 40.6850 -74.9089 270° West 303 349 15,900 420 Climbing New York Center
03:23PM 40.6842 -75.0456 270° West 338 389 16,000 960 Climbing New York Center
03:24PM 40.6467 -75.1583 246° West 338 389 17,900 1,860 Climbing New York Center
03:25PM 40.6011 -75.2619 240° Southwest 338 389 19,800 1,920 Climbing New York Center
03:26PM 40.5581 -75.3547 239° Southwest 332 382 21,800 1,980 Climbing New York Center
03:27PM 40.5125 -75.4500 238° Southwest 327 376 23,800 1,800 Climbing New York Center
03:28PM 40.4692 -75.5453 239° Southwest 321 369 25,500 1,320 Climbing New York Center
03:29PM 40.4233 -75.6483 240° Southwest 321 369 26,500 900 Climbing New York Center
03:30PM 40.3750 -75.7567 240° Southwest 334 384 27,400 960 Climbing New York Center
03:31PM 40.3244 -75.8647 238° Southwest 345 397 28,400 900 Climbing New York Center
03:32PM 40.2697 -75.9750 237° Southwest 355 409 29,300 900 Climbing New York Center
03:33PM 40.2147 -76.0878 237° Southwest 360 414 30,300 900 Climbing New York Center
03:34PM 40.1656 -76.2033 241° Southwest 360 414 31,200 900 Climbing New York Center
03:36PM 40.0289 -76.4936 238° Southwest 394 453 33,500 960 Climbing Washington Center
03:37PM 39.9719 -76.6147 238° Southwest 394 453 34,500 900 Climbing Washington Center
03:38PM 39.9167 -76.7303 238° Southwest 389 448 35,400 720 Climbing Washington Center
03:39PM 39.8611 -76.8564 240° Southwest 389 448 36,000 300 Climbing Washington Center
03:40PM 39.7972 -76.9931 239° Southwest 394 453 36,000  Level Washington Center
03:41PM 39.7353 -77.1214 238° Southwest 417 480 36,000  Level Washington Center
03:42PM 39.6731 -77.2550 239° Southwest 427 491 36,000  Level Washington Center
03:43PM 39.6108 -77.3828 238° Southwest 427 491 36,000  Level Washington Center
03:44PM 39.5547 -77.4997 238° Southwest 420 483 36,000  Level Washington Center
03:45PM 39.4881 -77.6378 238° Southwest 420 483 36,000  Level Washington Center
03:46PM 39.4339 -77.7519 238° Southwest 425 489 36,000  Level Washington Center
03:47PM 39.3775 -77.8683 238° Southwest 425 489 36,000  Level Washington Center
03:48PM 39.3181 -78.0303 245° Southwest 425 489 36,000  Level Washington Center
03:49PM 39.2589 -78.1675 241° Southwest 433 498 36,000  Level Washington Center
03:50PM 39.2106 -78.2864 242° Southwest 422 486 36,000  Level Washington Center
03:51PM 39.1508 -78.4367 243° Southwest 427 491 36,000  Level Washington Center
03:52PM 39.1019 -78.5581 243° Southwest 422 486 36,000  Level Washington Center
03:53PM 39.0461 -78.7106 245° Southwest 428 493 36,000  Level Washington Center
03:54PM 38.9947 -78.8342 242° Southwest 428 493 36,000  Level Washington Center
03:55PM 38.9303 -78.9781 240° Southwest 428 493 36,000  Level Washington Center
03:56PM 38.8856 -79.0878 242° Southwest 428 493 36,000  Level Washington Center
03:57PM 38.8428 -79.2592 252° West 429 494 36,000  Level Washington Center
03:58PM 38.8403 -79.4083 269° West 421 484 36,000  Level Washington Center
03:59PM 38.8356 -79.5600 268° West 421 484 36,000  Level Washington Center
04:00PM 38.8331 -79.6958 269° West 421 484 36,000  Level Washington Center
04:01PM 38.8300 -79.8422 269° West 421 484 36,000  Level Washington Center
04:02PM 38.8267 -79.9911 268° West 421 484 36,000  Level Washington Center
04:03PM 38.8197 -80.1269 266° West 424 488 36,000  Level Indianapolis Center
04:04PM 38.8150 -80.2781 268° West 424 488 36,000  Level Indianapolis Center
04:05PM 38.8103 -80.4281 268° West 421 484 36,000  Level Indianapolis Center
04:06PM 38.8069 -80.5786 268° West 422 486 36,000  Level Indianapolis Center
04:07PM 38.8014 -80.7583 268° West 421 484 36,000  Level Indianapolis Center
04:08PM 38.7972 -80.9103 268° West 426 490 36,000  Level Indianapolis Center
04:09PM 38.7919 -81.0594 267° West 421 484 36,000  Level Indianapolis Center
04:10PM 38.7869 -81.2103 268° West 425 489 36,000  Level Indianapolis Center
04:11PM 38.7814 -81.3600 267° West 424 488 36,000  Level Indianapolis Center
04:12PM 38.7753 -81.5217 267° West 426 490 36,000  Level Indianapolis Center
04:13PM 38.7694 -81.6853 267° West 429 494 36,000  Level Indianapolis Center
04:14PM 38.7631 -81.8356 267° West 428 493 36,000  Level Indianapolis Center
04:16PM 38.7572 -81.9872 267° West 427 491 36,000  Level Indianapolis Center
04:17PM 38.7508 -82.1403 267° West 430 495 36,000  Level Indianapolis Center
04:18PM 38.7447 -82.2931 267° West 430 495 36,000  Level Indianapolis Center
04:19PM 38.7378 -82.4783 267° West 432 497 36,000  Level Indianapolis Center
04:20PM 38.7311 -82.6328 267° West 434 499 36,000  Level Indianapolis Center
04:21PM 38.7256 -82.7872 267° West 434 499 36,000  Level Indianapolis Center
04:22PM 38.7103 -82.9347 262° West 420 483 36,000  Level Indianapolis Center
04:23PM 38.6903 -83.0783 260° West 410 472 36,000  Level Indianapolis Center
04:24PM 38.6675 -83.2350 259° West 407 468 36,000  Level Indianapolis Center
04:25PM 38.6478 -83.3717 260° West 405 466 36,000  Level Indianapolis Center
04:26PM 38.6244 -83.5358 260° West 404 465 36,000  Level Indianapolis Center
04:27PM 38.6042 -83.6758 260° West 401 461 36,000  Level Indianapolis Center
04:28PM 38.5825 -83.8150 259° West 402 463 36,000  Level Indianapolis Center
04:29PM 38.5622 -83.9561 260° West 402 463 36,000  Level Indianapolis Center
04:30PM 38.5408 -84.0956 259° West 401 461 36,000  Level Indianapolis Center
04:31PM 38.5161 -84.2583 259° West 401 461 36,000  Level Indianapolis Center
04:32PM 38.4953 -84.3978 259° West 401 461 36,000  Level Indianapolis Center
04:33PM 38.4739 -84.5378 259° West 400 460 36,000  Level Indianapolis Center
04:34PM 38.4522 -84.6775 259° West 402 463 36,000  Level Indianapolis Center
04:35PM 38.4289 -84.8178 258° West 404 465 36,000  Level Indianapolis Center
04:36PM 38.4078 -84.9572 259° West 403 464 36,000  Level Indianapolis Center
04:37PM 38.3817 -85.1208 259° West 402 463 36,000  Level Indianapolis Center
04:38PM 38.3633 -85.2389 259° West 403 464 36,000  Level Indianapolis Center
04:39PM 38.3353 -85.4092 258° West 408 470 36,000  Level Indianapolis Center
04:40PM 38.3122 -85.5508 258° West 407 468 36,000  Level Indianapolis Center
04:41PM 38.2897 -85.6925 259° West 407 468 36,000  Level Indianapolis Center
04:42PM 38.2658 -85.8350 258° West 410 472 36,000  Level Indianapolis Center
04:43PM 38.2411 -85.9806 258° West 418 481 36,000  Level Indianapolis Center
04:44PM 38.2167 -86.1289 258° West 425 489 36,000  Level Indianapolis Center
04:45PM 38.1917 -86.2783 258° West 431 496 36,000  Level Indianapolis Center
04:47PM 38.1600 -86.4578 257° West 431 496 36,000  Level Indianapolis Center
04:48PM 38.1347 -86.6083 258° West 431 496 36,000  Level Indianapolis Center
04:49PM 38.1081 -86.7583 257° West 433 498 36,000 -180 Level Indianapolis Center
04:50PM 38.0811 -86.9108 257° West 435 501 35,700 -600 Descending Indianapolis Center
04:51PM 38.0536 -87.0622 257° West 433 498 34,800 -960 Descending Indianapolis Center
04:52PM 38.0275 -87.2133 258° West 433 498 33,800 -1,020 Descending Indianapolis Center
04:53PM 38.0006 -87.3642 257° West 433 498 32,800 -900 Descending Indianapolis Center
04:54PM 37.9739 -87.5125 257° West 431 496 32,000 -420 Descending Indianapolis Center
04:55PM 37.9481 -87.6572 257° West 423 487 32,000  Level Indianapolis Center
04:56PM 37.9217 -87.8039 257° West 423 487 32,000  Level Indianapolis Center
04:57PM 37.9044 -87.9242 260° West 427 491 32,000  Level Kansas City Center
04:58PM 37.8844 -88.0781 261° West 434 499 32,000  Level Kansas City Center
04:59PM 37.8606 -88.2592 261° West 434 499 32,000  Level Kansas City Center
05:00PM 37.8406 -88.4028 260° West 421 484 32,000  Level Kansas City Center
05:01PM 37.8217 -88.5444 260° West 411 473 32,000 -60 Level Kansas City Center
05:02PM 37.8469 -88.6819 283° West 412 474 31,900 -600 Descending Kansas City Center
05:03PM 37.8806 -88.8003 290° West 394 453 30,800 -1,320 Descending Kansas City Center
05:04PM 37.8794 -88.9414 269° West 339 390 29,200 -1,380 Descending Kansas City Center
05:05PM 37.8778 -89.0583 269° West 326 375 28,000 -1,200 Descending Kansas City Center
05:06PM 37.8764 -89.1897 269° West 368 423 26,800 -1,200 Descending Kansas City Center
05:07PM 37.9103 -89.3381 286° West 415 478 25,600 -1,620 Descending Kansas City Center
05:08PM 37.9528 -89.4797 291° West 428 493 23,500 -2,220 Descending Kansas City Center
05:09PM 37.9897 -89.6042 291° West 385 443 21,000 -3,000 Descending Kansas City Center
05:10PM 38.0247 -89.6731 303° West 372 428 17,500 -3,600 Descending FAA TRACON SMA TRACON (SMA)
05:10PM 38.0356 -89.7122 289° West 378 435 16,300 -3,480 Descending FAA TRACON SMA TRACON (SMA)
05:11PM 38.0467 -89.7517 290° West 380 437 15,200 -3,840 Descending FAA TRACON SMA TRACON (SMA)
05:11PM 38.0611 -89.7981 292° West 376 433 13,700 -3,600 Descending FAA TRACON SMA TRACON (SMA)
05:12PM 38.0939 -89.8669 301° West 375 432 11,600 -2,700 Descending FAA TRACON SMA TRACON (SMA)
05:12PM 38.1261 -89.8983 323° Northwest 380 437 11,000 -1,080 Descending FAA TRACON SMA TRACON (SMA)
05:12PM 38.1567 -89.9125 340° North 381 438 10,900 -180 Descending FAA TRACON SMA TRACON (SMA)
05:13PM 38.1886 -89.9186 351° North 379 436 10,900  Level FAA TRACON SMA TRACON (SMA)
05:13PM 38.2297 -89.9272 351° North 386 444 10,900  Level FAA TRACON SMA TRACON (SMA)
05:13PM 38.2631 -89.9342 351° North 393 452 10,900  Level FAA TRACON SMA TRACON (SMA)
05:14PM 38.2981 -89.9394 353° North 405 466 10,900  Level FAA TRACON SMA TRACON (SMA)
05:14PM 38.3411 -89.9475 352° North 408 470 10,900  Level FAA TRACON SMA TRACON (SMA)
05:14PM 38.3750 -89.9533 352° North 403 464 10,900 -480 Level FAA TRACON SMA TRACON (SMA)
05:15PM 38.4069 -89.9597 351° North 389 448 10,600 -1,080 Descending FAA TRACON SMA TRACON (SMA)
05:15PM 38.4444 -89.9658 353° North 362 417 10,200 -1,080 Descending FAA TRACON SMA TRACON (SMA)
05:15PM 38.4714 -89.9714 351° North 334 384 9,900 -900 Descending FAA TRACON SMA TRACON (SMA)
05:16PM 38.4972 -89.9736 356° North 310 357 9,600 -1,080 Descending FAA TRACON SMA TRACON (SMA)
05:16PM 38.5275 -89.9722 North 290 334 9,200 -1,440 Descending FAA TRACON SMA TRACON (SMA)
05:16PM 38.5508 -89.9719 North 278 320 8,700 -2,100 Descending FAA TRACON SMA TRACON (SMA)
05:17PM 38.5719 -89.9808 342° North 272 313 7,800 -3,120 Descending FAA TRACON SMA TRACON (SMA)
05:17PM 38.5958 -89.9997 328° Northwest 263 303 6,600 -3,420 Descending FAA TRACON SMA TRACON (SMA)
05:17PM 38.6094 -90.0208 310° West 257 296 5,600 -2,580 Descending FAA TRACON SMA TRACON (SMA)
05:18PM 38.6172 -90.0458 292° West 248 285 4,900 -2,100 Descending FAA TRACON SMA TRACON (SMA)
05:18PM 38.6289 -90.0739 298° West 237 273 4,200 -1,500 Descending FAA TRACON SMA TRACON (SMA)
05:19PM 38.6664 -90.1478 303° West 253 291 2,900 -1,260 Descending FAA TRACON SMA TRACON (SMA)
05:19PM 38.6772 -90.1694 303° West 242 278 2,600 -900 Descending FAA TRACON SMA TRACON (SMA)
05:20PM 38.6872 -90.1894 303° West 224 258 2,300 -900 Descending FAA TRACON SMA TRACON (SMA)
05:20PM 38.6989 -90.2122 303° West 204 235 2,000 -1,080 Descending FAA TRACON SMA TRACON (SMA)
05:20PM 38.7078 -90.2308 301° West 198 228 1,600 -1,080 Descending FAA TRACON SMA TRACON (SMA)
05:21PM 38.7164 -90.2486 302° West 192 221 1,300 -1,200 Descending FAA TRACON SMA TRACON (SMA)
05:21PM 38.7269 -90.2708 301° West 190 219 800 -960 Descending FAA TRACON SMA TRACON (SMA)
05:21PM 38.7314 -90.2794 303° West 190 219 700 -180 Descending FAA TRACON SMA TRACON (SMA)
05:22PM 38.7314 -90.2794 252° West 190 219 700  Level FAA TRACON SMA TRACON (SMA)